Irving North's Hourly Summary for Tuesday, May 15, 2018
Hour Temp
(f)
RH
(%)
Solar Rad.
(MJ/m2)
Rainfall
(in)
Wind
(mph)
5/15/2018 12:00 AM 78 65 0 0 5.11
5/15/2018 1:00 AM 78 65 0 0 5.04
5/15/2018 2:00 AM 77 65 0 0 4.63
5/15/2018 3:00 AM 77 68 0 0 4.45
5/15/2018 4:00 AM 76 70 0 0 5.21
5/15/2018 5:00 AM 76 72 0 0 3.48
5/15/2018 6:00 AM 75 73 0.02 0 4.26
5/15/2018 7:00 AM 75 73 0.26 0 3.26
5/15/2018 8:00 AM 76 73 0.35 0 4.26
5/15/2018 9:00 AM 76 72 0.6 0 5.15
5/15/2018 10:00 AM 76 72 0.87 0 7.42
5/15/2018 11:00 AM 76 73 1.04 0 6.75
5/15/2018 12:00 PM 77 68 1.99 0 6.17
5/15/2018 1:00 PM 81 60 3.4 0 5.76
5/15/2018 2:00 PM 83 48 3.16 0 5.05
5/15/2018 3:00 PM 85 45 2.59 0 4.51
5/15/2018 4:00 PM 86 46 1.31 0 4.71
5/15/2018 5:00 PM 85 49 0.31 0 5.1
5/15/2018 6:00 PM 84 51 0.52 0 5.01
5/15/2018 7:00 PM 83 51 0.25 0 6.93
5/15/2018 8:00 PM 79 54 0.01 0 6.49
5/15/2018 9:00 PM 77 57 0 0 3.21
5/15/2018 10:00 PM 77 61 0 0 3.27
5/15/2018 11:00 PM 75 63 0 0 2.31
Data Summary 78 62 16.68 0.00 4.90